createdAt,value
2022-08-01T00:00:25.482Z,2.22
2022-08-01T00:01:26.973Z,2.00
2022-08-01T00:02:28.843Z,2.20
2022-08-01T00:03:30.227Z,1.95
2022-08-01T00:04:31.588Z,2.13
2022-08-01T00:05:33.270Z,2.13
2022-08-01T00:06:34.617Z,1.98
2022-08-01T00:07:36.250Z,2.17
2022-08-01T00:08:37.697Z,2.08
2022-08-01T00:09:39.059Z,2.05
2022-08-01T00:10:40.663Z,2.10
2022-08-01T00:11:42.866Z,2.20
2022-08-01T00:12:44.682Z,2.10
2022-08-01T00:13:46.016Z,2.10
2022-08-01T00:14:47.552Z,2.03
2022-08-01T00:15:53.670Z,2.40
2022-08-01T00:16:55.698Z,2.10
2022-08-01T00:17:57.071Z,1.83
2022-08-01T00:18:58.389Z,2.08
2022-08-01T00:19:59.733Z,2.00
2022-08-01T00:21:01.049Z,1.90
2022-08-01T00:22:02.599Z,1.90
2022-08-01T00:23:04.223Z,1.90
2022-08-01T00:24:05.780Z,1.90
2022-08-01T00:25:07.318Z,2.08
2022-08-01T00:26:08.657Z,1.90
2022-08-01T00:27:10.015Z,1.92
2022-08-01T00:28:11.372Z,1.90
2022-08-01T00:30:10.002Z,2.05
2022-08-01T00:30:34.051Z,1.90
2022-08-01T00:31:35.457Z,2.20
2022-08-01T00:32:36.811Z,2.55
2022-08-01T00:33:38.210Z,1.83
2022-08-01T00:34:41.628Z,2.00
2022-08-01T00:35:42.974Z,2.55
2022-08-01T00:36:44.587Z,2.35
2022-08-01T00:37:45.949Z,1.95
2022-08-01T00:38:47.372Z,2.10
2022-08-01T00:39:48.713Z,1.80
2022-08-01T00:40:50.149Z,2.00
2022-08-01T00:42:01.669Z,2.22
2022-08-01T00:43:03.514Z,1.50
2022-08-01T00:44:05.809Z,2.00
2022-08-01T00:45:07.531Z,1.75
2022-08-01T00:46:08.848Z,1.70
2022-08-01T00:47:10.238Z,1.77
2022-08-01T00:48:11.568Z,2.30
2022-08-01T00:49:12.946Z,2.00
2022-08-01T00:50:14.443Z,1.90
2022-08-01T00:51:16.062Z,2.05
2022-08-01T00:52:17.610Z,1.60
2022-08-01T00:53:19.202Z,1.92
2022-08-01T00:54:20.613Z,1.80
2022-08-01T00:55:22.031Z,1.90
2022-08-01T00:56:25.341Z,2.00
2022-08-01T00:58:01.479Z,1.90
2022-08-01T00:58:48.393Z,1.80
2022-08-01T00:59:51.890Z,1.70
2022-08-01T01:00:54.713Z,1.80
2022-08-01T01:01:56.306Z,1.60
2022-08-01T01:02:57.829Z,1.65
2022-08-01T01:03:59.990Z,1.50
2022-08-01T01:05:01.599Z,1.95
2022-08-01T01:06:15.632Z,1.83
2022-08-01T01:07:33.090Z,1.75
2022-08-01T01:08:42.650Z,1.83
2022-08-01T01:09:46.783Z,1.67
2022-08-01T01:10:52.046Z,1.70
2022-08-01T01:11:59.668Z,1.80
2022-08-01T01:13:03.709Z,1.50
2022-08-01T01:14:11.545Z,1.77
2022-08-01T01:15:31.605Z,1.52
2022-08-01T01:16:34.572Z,1.50
2022-08-01T01:17:56.158Z,1.50
2022-08-01T01:19:01.306Z,1.65
2022-08-01T01:20:03.900Z,1.40
2022-08-01T01:21:17.436Z,1.50
2022-08-01T01:22:42.995Z,1.70
2022-08-01T01:23:50.256Z,1.60
2022-08-01T01:25:10.308Z,1.45
2022-08-01T01:26:31.930Z,1.73
2022-08-01T01:27:48.662Z,1.70
2022-08-01T01:29:07.190Z,1.38
2022-08-01T01:30:08.701Z,1.92
2022-08-01T01:31:11.122Z,1.52
2022-08-01T01:32:30.813Z,1.50
2022-08-01T01:33:32.904Z,1.48
2022-08-01T01:34:36.826Z,1.67
2022-08-01T01:35:41.147Z,1.80
2022-08-01T01:36:44.422Z,1.90
2022-08-01T01:37:46.988Z,1.90
2022-08-01T01:38:48.965Z,1.70
2022-08-01T01:39:54.527Z,1.70
2022-08-01T01:40:56.765Z,1.88
2022-08-01T01:41:58.975Z,1.90
2022-08-01T01:43:00.639Z,1.67
2022-08-01T01:44:02.757Z,1.73
2022-08-01T01:45:04.778Z,1.80
2022-08-01T01:46:07.112Z,1.80
2022-08-01T01:47:08.447Z,1.75
2022-08-01T01:48:11.174Z,1.60
2022-08-01T01:49:12.937Z,1.85
2022-08-01T01:50:15.806Z,1.50
2022-08-01T01:51:17.332Z,1.70
2022-08-01T01:52:19.428Z,1.95
2022-08-01T01:53:22.298Z,1.70
2022-08-01T01:54:25.388Z,1.70
2022-08-01T01:55:27.347Z,1.95
2022-08-01T01:56:30.038Z,1.90
2022-08-01T01:57:31.963Z,1.83
2022-08-01T01:58:34.936Z,1.90
2022-08-01T01:59:37.629Z,1.75
2022-08-01T02:00:39.691Z,1.83
2022-08-01T02:02:05.508Z,2.05
2022-08-01T02:03:06.527Z,1.80
2022-08-01T02:04:08.372Z,2.10
2022-08-01T02:05:10.870Z,1.67
2022-08-01T02:06:14.309Z,2.03
2022-08-01T02:07:18.575Z,2.05
2022-08-01T02:08:21.190Z,1.90
2022-08-01T02:09:23.692Z,2.88
2022-08-01T02:10:28.538Z,1.80
2022-08-01T02:11:30.589Z,2.13
2022-08-01T02:12:33.859Z,2.10
2022-08-01T02:13:37.275Z,1.98
2022-08-01T02:14:41.108Z,2.15
2022-08-01T02:15:58.999Z,1.80
2022-08-01T02:17:04.706Z,2.00
2022-08-01T02:18:06.909Z,2.17
2022-08-01T02:19:08.569Z,1.85
2022-08-01T02:20:10.584Z,1.90
2022-08-01T02:21:13.616Z,1.90
2022-08-01T02:22:23.561Z,1.90
2022-08-01T02:23:28.075Z,2.20
2022-08-01T02:24:40.910Z,2.35
2022-08-01T02:26:08.490Z,1.85
2022-08-01T02:27:14.688Z,2.10
2022-08-01T02:28:18.439Z,2.00
2022-08-01T02:29:23.293Z,1.90
2022-08-01T02:30:26.026Z,1.80
2022-08-01T02:31:27.780Z,1.88
2022-08-01T02:32:33.148Z,1.60
2022-08-01T02:33:37.747Z,1.92
2022-08-01T02:34:39.756Z,1.80
2022-08-01T02:36:32.432Z,1.88
2022-08-01T02:37:04.031Z,1.90
2022-08-01T02:38:07.296Z,1.60
2022-08-01T02:39:13.697Z,2.00
2022-08-01T02:40:16.414Z,1.98
2022-08-01T02:41:20.688Z,1.95
2022-08-01T02:42:23.488Z,2.00
2022-08-01T02:43:27.106Z,1.98
2022-08-01T02:44:30.736Z,1.70
2022-08-01T02:45:32.405Z,1.60
2022-08-01T02:46:41.645Z,1.73
2022-08-01T02:47:43.293Z,1.80
2022-08-01T02:48:46.161Z,2.20
2022-08-01T02:49:53.728Z,1.73
2022-08-01T02:50:56.010Z,1.90
2022-08-01T02:51:57.671Z,2.10
2022-08-01T02:52:59.162Z,1.85
2022-08-01T02:54:02.560Z,2.30
2022-08-01T02:55:04.198Z,1.85
2022-08-01T02:56:06.686Z,2.13
2022-08-01T02:57:13.627Z,2.00
2022-08-01T02:58:17.041Z,2.15
2022-08-01T02:59:22.413Z,2.15
2022-08-01T03:00:24.847Z,2.30
2022-08-01T03:01:27.086Z,2.00
2022-08-01T03:02:31.178Z,1.80
2022-08-01T03:03:33.101Z,1.90
2022-08-01T03:04:36.288Z,2.10
2022-08-01T03:05:38.295Z,1.70
2022-08-01T03:06:40.072Z,1.70
2022-08-01T03:07:44.216Z,2.00
2022-08-01T03:08:45.924Z,1.88
2022-08-01T03:09:48.363Z,1.90
2022-08-01T03:10:50.900Z,1.80
2022-08-01T03:11:53.322Z,1.67
2022-08-01T03:12:55.516Z,1.67
2022-08-01T03:13:57.474Z,1.75
2022-08-01T03:15:00.788Z,1.88
2022-08-01T03:16:03.237Z,1.90
2022-08-01T03:17:05.721Z,1.75
2022-08-01T03:18:08.446Z,2.22
2022-08-01T03:19:10.749Z,2.15
2022-08-01T03:20:13.318Z,1.80
2022-08-01T03:21:15.083Z,1.90
2022-08-01T03:22:16.835Z,2.40
2022-08-01T03:23:18.711Z,1.77
2022-08-01T03:24:20.532Z,1.90
2022-08-01T03:25:22.497Z,1.70
2022-08-01T03:26:31.437Z,2.03
2022-08-01T03:27:33.794Z,1.85
2022-08-01T03:28:36.380Z,2.35
2022-08-01T03:29:38.300Z,2.08
2022-08-01T03:30:43.082Z,2.10
2022-08-01T03:31:45.875Z,2.05
2022-08-01T03:32:47.347Z,2.03
2022-08-01T03:33:48.694Z,1.80
2022-08-01T03:34:50.214Z,1.70
2022-08-01T03:35:54.867Z,2.13
2022-08-01T03:36:56.168Z,2.17
2022-08-01T03:38:15.807Z,1.70
2022-08-01T03:39:19.489Z,2.00
2022-08-01T03:40:27.066Z,2.00
2022-08-01T03:41:29.878Z,2.00
2022-08-01T03:42:37.509Z,1.80
2022-08-01T03:43:42.425Z,1.95
2022-08-01T03:44:47.885Z,1.95
2022-08-01T03:45:51.417Z,1.80
2022-08-01T03:46:59.175Z,1.90
2022-08-01T03:48:01.473Z,1.98
2022-08-01T03:49:06.829Z,1.90
2022-08-01T03:50:12.482Z,2.10
2022-08-01T03:51:14.654Z,2.05
2022-08-01T03:52:16.603Z,1.70
2022-08-01T03:53:22.311Z,1.90
2022-08-01T03:54:25.335Z,1.88
2022-08-01T03:55:27.458Z,1.90
2022-08-01T03:56:32.778Z,1.80
2022-08-01T03:57:35.938Z,1.75
2022-08-01T03:58:39.882Z,1.90
2022-08-01T03:59:41.981Z,1.80
2022-08-01T04:00:43.944Z,1.90
2022-08-01T04:01:46.314Z,1.83
2022-08-01T04:02:48.603Z,1.90
2022-08-01T04:03:50.746Z,1.80
2022-08-01T04:04:52.221Z,1.80
2022-08-01T04:05:53.608Z,1.90
2022-08-01T04:06:55.298Z,1.70
2022-08-01T04:07:56.886Z,2.17
2022-08-01T04:08:58.256Z,1.92
2022-08-01T04:09:59.671Z,2.00
2022-08-01T04:11:01.164Z,1.73
2022-08-01T04:12:12.131Z,1.80
2022-08-01T04:13:13.871Z,1.90
2022-08-01T04:14:15.792Z,2.00
2022-08-01T04:15:17.233Z,1.80
2022-08-01T04:16:18.659Z,1.50
2022-08-01T04:17:19.994Z,1.75
2022-08-01T04:18:21.373Z,1.70
2022-08-01T04:19:22.741Z,2.05
2022-08-01T04:20:24.135Z,1.80
2022-08-01T04:21:28.678Z,2.17
2022-08-01T04:22:31.475Z,2.22
2022-08-01T04:23:35.129Z,1.95
2022-08-01T04:24:37.428Z,2.35
2022-08-01T04:25:40.703Z,2.22
2022-08-01T04:26:44.362Z,2.40
2022-08-01T04:27:51.244Z,2.00
2022-08-01T04:28:55.679Z,2.17
2022-08-01T04:29:58.797Z,2.28
2022-08-01T04:31:02.257Z,2.13
2022-08-01T04:32:05.620Z,1.90
2022-08-01T04:33:08.761Z,1.80
2022-08-01T04:34:10.956Z,2.28
2022-08-01T04:35:23.232Z,2.15
2022-08-01T04:36:37.534Z,2.55
2022-08-01T04:37:41.203Z,2.22
2022-08-01T04:38:43.922Z,2.10
2022-08-01T04:39:50.318Z,2.50
2022-08-01T04:40:53.594Z,2.25
2022-08-01T04:41:57.476Z,2.15
2022-08-01T04:42:58.812Z,2.03
2022-08-01T04:44:00.429Z,1.98
2022-08-01T04:45:01.788Z,2.08
2022-08-01T04:46:04.747Z,2.13
2022-08-01T04:47:08.623Z,2.10
2022-08-01T04:48:10.681Z,2.40
2022-08-01T04:49:12.786Z,2.22
2022-08-01T04:50:14.416Z,2.00
2022-08-01T04:51:16.399Z,2.30
2022-08-01T04:52:22.955Z,2.13
2022-08-01T04:53:27.014Z,2.38
2022-08-01T04:54:28.812Z,2.35
2022-08-01T04:55:30.408Z,2.63
2022-08-01T04:56:31.732Z,2.33
2022-08-01T04:57:35.658Z,2.80
2022-08-01T04:58:36.989Z,3.00
2022-08-01T04:59:42.179Z,2.70
2022-08-01T05:00:43.506Z,2.40
2022-08-01T05:01:48.865Z,2.42
2022-08-01T05:02:50.273Z,2.75
2022-08-01T05:03:52.683Z,2.40
2022-08-01T05:04:54.037Z,2.50
2022-08-01T05:05:55.365Z,2.95
2022-08-01T05:06:56.686Z,2.80
2022-08-01T05:07:58.046Z,2.83
2022-08-01T05:08:59.351Z,3.35
2022-08-01T05:10:02.265Z,2.90
2022-08-01T05:11:07.072Z,2.78
2022-08-01T05:12:09.261Z,2.42
2022-08-01T05:13:11.896Z,2.38
2022-08-01T05:14:13.218Z,2.58
2022-08-01T05:15:15.632Z,2.28
2022-08-01T05:16:17.892Z,2.67
2022-08-01T05:17:19.290Z,2.28
2022-08-01T05:18:27.906Z,2.78
2022-08-01T05:19:32.736Z,2.22
2022-08-01T05:20:34.328Z,2.67
2022-08-01T05:21:35.871Z,2.90
2022-08-01T05:22:37.487Z,2.63
2022-08-01T05:23:43.009Z,2.55
2022-08-01T05:24:45.001Z,2.40
2022-08-01T05:25:57.706Z,2.60
2022-08-01T05:27:00.191Z,2.78
2022-08-01T05:28:02.027Z,2.80
2022-08-01T05:29:11.922Z,2.97
2022-08-01T05:30:37.455Z,2.38
2022-08-01T05:31:38.812Z,2.10
2022-08-01T05:32:40.268Z,2.20
2022-08-01T05:33:41.642Z,2.22
2022-08-01T05:34:43.061Z,2.20
2022-08-01T05:35:47.496Z,2.30
2022-08-01T05:36:52.976Z,2.58
2022-08-01T05:37:58.072Z,2.60
2022-08-01T05:38:59.396Z,2.38
2022-08-01T05:40:00.939Z,2.35
2022-08-01T05:41:49.929Z,2.45
2022-08-01T05:42:51.262Z,2.50
2022-08-01T05:43:53.926Z,2.63
2022-08-01T05:44:55.268Z,2.40
2022-08-01T05:45:56.628Z,2.30
2022-08-01T05:46:58.036Z,2.17
2022-08-01T05:47:59.388Z,2.78
2022-08-01T05:49:01.935Z,2.25
2022-08-01T05:50:03.393Z,2.50
2022-08-01T05:51:06.134Z,2.22
2022-08-01T05:52:08.631Z,2.55
2022-08-01T05:53:10.368Z,2.53
2022-08-01T05:54:11.794Z,2.40
2022-08-01T05:55:13.174Z,2.53
2022-08-01T05:56:14.615Z,2.40
2022-08-01T05:57:16.004Z,2.10
2022-08-01T05:58:17.405Z,2.10
2022-08-01T05:59:18.822Z,2.17
2022-08-01T06:00:20.183Z,1.90
2022-08-01T06:01:21.975Z,1.98
2022-08-01T06:02:23.444Z,2.10
2022-08-01T06:03:24.976Z,2.33
2022-08-01T06:04:26.299Z,2.42
2022-08-01T06:05:27.650Z,1.95
2022-08-01T06:06:29.047Z,1.77
2022-08-01T06:07:30.375Z,1.80
2022-08-01T06:08:32.107Z,1.40
2022-08-01T06:09:33.517Z,1.63
2022-08-01T06:10:34.842Z,1.88
2022-08-01T06:11:36.274Z,1.58
2022-08-01T06:12:37.841Z,1.70
2022-08-01T06:13:48.689Z,1.45
2022-08-01T06:14:50.370Z,1.75
2022-08-01T06:15:51.773Z,1.98
2022-08-01T06:16:53.139Z,1.73
2022-08-01T06:17:54.469Z,1.80
2022-08-01T06:18:56.747Z,2.05
2022-08-01T06:19:58.424Z,1.90
2022-08-01T06:20:59.747Z,1.80
2022-08-01T06:22:01.070Z,1.60
2022-08-01T06:23:02.653Z,1.90
2022-08-01T06:24:24.806Z,1.83
2022-08-01T06:25:26.284Z,1.73
2022-08-01T06:26:27.614Z,1.40
2022-08-01T06:27:28.957Z,1.65
2022-08-01T06:28:30.710Z,1.50
2022-08-01T06:29:33.273Z,1.55
2022-08-01T06:30:34.964Z,1.52
2022-08-01T06:31:36.274Z,1.38
2022-08-01T06:32:37.910Z,1.50
2022-08-01T06:33:39.238Z,1.80
2022-08-01T06:34:40.561Z,1.40
2022-08-01T06:35:41.871Z,1.17
2022-08-01T06:36:43.231Z,1.60
2022-08-01T06:37:45.880Z,1.33
2022-08-01T06:38:47.258Z,1.55
2022-08-01T06:39:50.248Z,1.08
2022-08-01T06:40:51.563Z,1.23
2022-08-01T06:41:52.902Z,1.25
2022-08-01T06:42:54.314Z,0.93
2022-08-01T06:43:55.672Z,1.20
2022-08-01T06:44:57.001Z,1.20
2022-08-01T06:45:58.338Z,1.20
2022-08-01T06:46:59.761Z,1.45
2022-08-01T06:48:01.080Z,1.35
2022-08-01T06:49:02.925Z,1.00
2022-08-01T06:50:05.060Z,1.13
2022-08-01T06:51:09.452Z,1.58
2022-08-01T06:52:10.953Z,1.27
2022-08-01T06:53:12.437Z,1.10
2022-08-01T06:54:13.791Z,1.65
2022-08-01T06:55:15.412Z,1.27
2022-08-01T06:56:16.783Z,1.48
2022-08-01T06:57:18.267Z,0.90
2022-08-01T06:58:19.667Z,1.10
2022-08-01T06:59:21.321Z,1.00
2022-08-01T07:00:23.387Z,1.10
2022-08-01T07:01:24.864Z,1.00
2022-08-01T07:02:26.257Z,1.35
2022-08-01T07:03:28.006Z,1.05
2022-08-01T07:04:49.379Z,1.10
2022-08-01T07:05:50.733Z,1.08
2022-08-01T07:06:52.060Z,0.95
2022-08-01T07:07:53.574Z,0.98
2022-08-01T07:08:54.957Z,0.90
2022-08-01T07:09:56.280Z,1.10
2022-08-01T07:11:00.193Z,0.80
2022-08-01T07:12:01.508Z,0.90
2022-08-01T07:13:02.870Z,0.60
2022-08-01T07:14:04.317Z,1.00
2022-08-01T07:15:06.252Z,0.80
2022-08-01T07:16:07.691Z,0.90
2022-08-01T07:17:09.029Z,0.80
2022-08-01T07:18:10.366Z,1.10
2022-08-01T07:19:11.739Z,0.98
2022-08-01T07:20:16.105Z,0.90
2022-08-01T07:21:40.195Z,0.88
2022-08-01T07:22:39.301Z,0.90
2022-08-01T07:23:45.879Z,0.85
2022-08-01T07:24:47.788Z,0.80
2022-08-01T07:25:59.330Z,1.00
2022-08-01T07:27:11.461Z,1.25
2022-08-01T07:28:23.578Z,1.10
2022-08-01T07:29:25.396Z,0.88
2022-08-01T07:30:27.150Z,1.00
2022-08-01T07:31:32.265Z,0.93
2022-08-01T07:32:35.802Z,1.00
2022-08-01T07:33:48.504Z,1.13
2022-08-01T07:34:50.727Z,0.90
2022-08-01T07:35:52.114Z,1.52
2022-08-01T07:36:53.635Z,1.10
2022-08-01T07:37:54.967Z,1.00
2022-08-01T07:38:56.427Z,1.20
2022-08-01T07:39:57.804Z,1.10
2022-08-01T07:40:59.231Z,1.00
2022-08-01T07:42:07.196Z,1.00
2022-08-01T07:43:09.815Z,1.13
2022-08-01T07:44:11.209Z,1.00
2022-08-01T07:45:12.993Z,0.90
2022-08-01T07:46:14.329Z,0.88
2022-08-01T07:47:16.676Z,0.90
2022-08-01T07:48:18.175Z,0.75
2022-08-01T07:49:19.840Z,0.80
2022-08-01T07:50:21.324Z,0.90
2022-08-01T07:51:22.642Z,0.70
2022-08-01T07:52:24.086Z,0.80
2022-08-01T07:53:25.584Z,0.88
2022-08-01T07:54:33.594Z,0.93
2022-08-01T07:55:35.533Z,0.80
2022-08-01T07:56:36.855Z,0.90
2022-08-01T07:57:38.283Z,0.80
2022-08-01T07:58:39.598Z,0.70
2022-08-01T07:59:40.959Z,1.00
2022-08-01T08:00:42.287Z,0.70
2022-08-01T08:01:43.683Z,0.73
2022-08-01T08:02:49.820Z,0.82
2022-08-01T08:03:51.141Z,0.82
2022-08-01T08:04:52.486Z,0.85
2022-08-01T08:06:00.247Z,0.70
2022-08-01T08:07:01.846Z,0.63
2022-08-01T08:08:06.864Z,0.90
2022-08-01T08:09:08.161Z,0.90
2022-08-01T08:10:09.668Z,0.70
2022-08-01T08:11:11.157Z,0.68
2022-08-01T08:12:13.108Z,0.70
2022-08-01T08:13:14.502Z,0.63
2022-08-01T08:14:16.451Z,0.70
2022-08-01T08:15:17.803Z,0.90
2022-08-01T08:16:19.139Z,0.75
2022-08-01T08:17:20.471Z,0.80
2022-08-01T08:18:21.815Z,0.80
2022-08-01T08:19:23.135Z,0.88
2022-08-01T08:20:40.128Z,0.70
2022-08-01T08:21:41.827Z,0.70
2022-08-01T08:22:43.210Z,0.80
2022-08-01T08:24:03.144Z,0.85
2022-08-01T08:25:04.688Z,0.90
2022-08-01T08:26:09.041Z,1.10
2022-08-01T08:27:10.435Z,1.20
2022-08-01T08:28:11.828Z,1.05
2022-08-01T08:29:13.262Z,0.93
2022-08-01T08:30:15.007Z,0.70
2022-08-01T08:31:25.285Z,0.93
2022-08-01T08:32:37.725Z,1.05
2022-08-01T08:33:39.170Z,0.80
2022-08-01T08:34:40.582Z,1.10
2022-08-01T08:35:53.643Z,1.15
2022-08-01T08:36:56.929Z,1.08
2022-08-01T08:37:58.276Z,0.90
2022-08-01T08:39:02.999Z,0.85
2022-08-01T08:40:05.285Z,0.90
2022-08-01T08:41:06.718Z,1.00
2022-08-01T08:42:08.810Z,1.05
2022-08-01T08:43:10.512Z,1.02
2022-08-01T08:44:11.862Z,1.00
2022-08-01T08:45:13.243Z,0.80
2022-08-01T08:46:15.242Z,1.23
2022-08-01T08:47:20.212Z,1.00
2022-08-01T08:48:22.349Z,0.80
2022-08-01T08:49:35.961Z,1.00
2022-08-01T08:50:38.394Z,1.13
2022-08-01T08:51:40.495Z,0.60
2022-08-01T08:52:42.502Z,0.98
2022-08-01T08:53:45.343Z,0.93
2022-08-01T08:54:47.459Z,0.82
2022-08-01T08:55:55.337Z,1.00
2022-08-01T08:56:58.309Z,0.85
2022-08-01T08:58:01.428Z,0.70
2022-08-01T08:59:03.665Z,0.70
2022-08-01T09:00:05.598Z,1.00
2022-08-01T09:01:09.364Z,0.85
2022-08-01T09:02:10.985Z,1.08
2022-08-01T09:03:12.977Z,1.00
2022-08-01T09:04:14.662Z,0.80
2022-08-01T09:05:19.703Z,1.00
2022-08-01T09:06:21.463Z,0.95
2022-08-01T09:07:23.781Z,0.70
2022-08-01T09:08:25.677Z,1.10
2022-08-01T09:09:27.046Z,1.10
2022-08-01T09:10:28.478Z,0.80
2022-08-01T09:11:29.920Z,0.70
2022-08-01T09:12:31.418Z,0.80
2022-08-01T09:13:32.846Z,0.80
2022-08-01T09:14:36.285Z,0.73
2022-08-01T09:16:00.337Z,0.68
2022-08-01T09:17:03.402Z,0.80
2022-08-01T09:18:05.047Z,0.63
2022-08-01T09:19:39.048Z,0.60
2022-08-01T09:20:38.273Z,0.60
2022-08-01T09:21:40.174Z,0.70
2022-08-01T09:22:43.989Z,0.60
2022-08-01T09:23:54.798Z,0.50
2022-08-01T09:25:05.916Z,0.80
2022-08-01T09:26:07.763Z,0.50
2022-08-01T09:27:17.876Z,0.40
2022-08-01T09:28:27.815Z,0.52
2022-08-01T09:29:37.196Z,0.50
2022-08-01T09:30:40.185Z,0.60
2022-08-01T09:31:47.692Z,0.60
2022-08-01T09:33:11.102Z,0.65
2022-08-01T09:34:32.097Z,0.57
2022-08-01T09:35:43.853Z,0.50
2022-08-01T09:36:54.262Z,0.70
2022-08-01T09:38:15.517Z,0.70
2022-08-01T09:39:16.942Z,0.90
2022-08-01T09:40:18.349Z,0.82
2022-08-01T09:41:39.916Z,0.70
2022-08-01T09:42:42.359Z,0.60
2022-08-01T09:43:51.154Z,0.80
2022-08-01T09:44:54.305Z,0.65
2022-08-01T09:45:58.002Z,0.68
2022-08-01T09:47:00.016Z,0.60
2022-08-01T09:48:10.591Z,1.23
2022-08-01T09:49:12.269Z,0.95
2022-08-01T09:50:14.691Z,0.60
2022-08-01T09:52:00.318Z,0.70
2022-08-01T09:52:54.771Z,0.68
2022-08-01T09:53:56.522Z,0.50
2022-08-01T09:55:01.899Z,0.60
2022-08-01T09:56:11.652Z,0.60
2022-08-01T09:57:14.810Z,0.57
2022-08-01T09:58:16.227Z,0.52
2022-08-01T09:59:17.617Z,0.68
2022-08-01T10:00:43.856Z,0.70
2022-08-01T10:01:48.806Z,0.55
2022-08-01T10:02:50.127Z,0.60
2022-08-01T10:04:10.514Z,0.60
2022-08-01T10:05:20.794Z,0.80
2022-08-01T10:06:25.472Z,0.65
2022-08-01T10:07:27.687Z,0.70
2022-08-01T10:08:47.694Z,0.88
2022-08-01T10:09:49.325Z,0.50
2022-08-01T10:11:09.877Z,0.60
2022-08-01T10:12:18.076Z,0.70
2022-08-01T10:13:19.515Z,0.80
2022-08-01T10:14:23.557Z,0.75
2022-08-01T10:15:37.223Z,0.82
2022-08-01T10:16:39.597Z,0.55
2022-08-01T10:17:50.825Z,0.60
2022-08-01T10:18:54.110Z,0.60
2022-08-01T10:19:58.206Z,0.60
2022-08-01T10:21:01.677Z,0.50
2022-08-01T10:22:05.624Z,0.70
2022-08-01T10:23:07.395Z,0.70
2022-08-01T10:24:09.783Z,0.73
2022-08-01T10:25:11.182Z,0.68
2022-08-01T10:26:15.419Z,0.70
2022-08-01T10:27:24.503Z,0.60
2022-08-01T10:28:39.624Z,0.80
2022-08-01T10:29:45.939Z,0.70
2022-08-01T10:30:49.297Z,0.70
2022-08-01T10:31:51.396Z,0.65
2022-08-01T10:32:55.119Z,0.50
2022-08-01T10:33:58.227Z,0.60
2022-08-01T10:35:06.775Z,0.70
2022-08-01T10:36:09.162Z,0.60
2022-08-01T10:37:11.486Z,0.60
2022-08-01T10:38:13.864Z,0.80
2022-08-01T10:39:15.559Z,0.85
2022-08-01T10:40:37.004Z,0.60
2022-08-01T10:41:41.641Z,0.80
2022-08-01T10:42:44.539Z,0.60
2022-08-01T10:43:47.376Z,0.70
2022-08-01T10:44:49.093Z,1.00
2022-08-01T10:45:51.671Z,1.30
2022-08-01T10:46:55.378Z,1.17
2022-08-01T10:48:12.189Z,1.13
2022-08-01T10:49:16.284Z,0.70
2022-08-01T10:50:26.187Z,0.85
2022-08-01T10:51:51.528Z,0.68
2022-08-01T10:53:15.066Z,0.60
2022-08-01T10:54:18.218Z,0.60
2022-08-01T10:55:19.628Z,0.75
2022-08-01T10:56:26.636Z,0.63
2022-08-01T10:57:42.139Z,0.65
2022-08-01T10:58:50.676Z,0.80
2022-08-01T11:00:01.584Z,0.70
2022-08-01T11:01:15.397Z,0.68
2022-08-01T11:02:31.822Z,0.63
2022-08-01T11:03:55.621Z,0.73
2022-08-01T11:04:59.622Z,0.80
2022-08-01T11:06:01.092Z,1.00
2022-08-01T11:07:06.337Z,0.90
2022-08-01T11:08:11.705Z,0.80
2022-08-01T11:09:36.507Z,0.90
2022-08-01T11:10:40.118Z,0.80
2022-08-01T11:12:01.224Z,0.60
2022-08-01T11:13:04.448Z,0.90
2022-08-01T11:14:10.305Z,0.60
2022-08-01T11:15:12.009Z,0.70
2022-08-01T11:16:26.980Z,0.80
2022-08-01T11:17:42.309Z,0.50
2022-08-01T11:18:51.224Z,0.60
2022-08-01T11:20:06.475Z,0.80
2022-08-01T11:21:58.093Z,0.70
2022-08-01T11:22:30.546Z,0.70
2022-08-01T11:23:47.491Z,0.88
2022-08-01T11:24:49.825Z,0.63
2022-08-01T11:26:04.757Z,0.73
2022-08-01T11:27:20.664Z,1.50
2022-08-01T11:28:34.898Z,0.90
2022-08-01T11:29:36.803Z,0.95
2022-08-01T11:30:38.497Z,0.80
2022-08-01T11:31:40.864Z,0.65
2022-08-01T11:33:10.750Z,0.80
2022-08-01T11:34:13.333Z,0.60
2022-08-01T11:35:17.371Z,0.70
2022-08-01T11:36:36.907Z,0.70
2022-08-01T11:37:42.830Z,0.65
2022-08-01T11:38:45.422Z,0.60
2022-08-01T11:40:06.754Z,0.70
2022-08-01T11:41:12.326Z,0.82
2022-08-01T11:42:21.214Z,0.70
2022-08-01T11:43:22.751Z,0.73
2022-08-01T11:44:26.525Z,0.80
2022-08-01T11:45:47.556Z,0.80
2022-08-01T11:46:51.955Z,1.00
2022-08-01T11:47:53.468Z,0.90
2022-08-01T11:49:14.636Z,0.60
2022-08-01T11:50:35.889Z,0.75
2022-08-01T11:51:37.266Z,0.60
2022-08-01T11:52:41.781Z,0.57
2022-08-01T11:53:47.098Z,0.68
2022-08-01T11:54:50.191Z,0.60
2022-08-01T11:55:53.589Z,0.80
2022-08-01T11:56:56.123Z,0.90
2022-08-01T11:58:01.579Z,0.70
2022-08-01T11:59:03.593Z,0.60
2022-08-01T12:00:17.375Z,0.80
2022-08-01T12:01:19.152Z,0.60
2022-08-01T12:02:30.071Z,0.95
2022-08-01T12:03:34.337Z,0.52
2022-08-01T12:04:45.809Z,0.73
2022-08-01T12:05:47.228Z,0.68
2022-08-01T12:06:48.674Z,0.70
2022-08-01T12:07:53.129Z,0.73
2022-08-01T12:08:54.547Z,1.17
2022-08-01T12:09:58.690Z,1.00
2022-08-01T12:11:02.310Z,1.27
2022-08-01T12:12:04.261Z,0.75
2022-08-01T12:13:06.897Z,0.63
2022-08-01T12:14:08.325Z,0.80
2022-08-01T12:15:10.318Z,0.80
2022-08-01T12:16:11.809Z,0.60
2022-08-01T12:17:13.873Z,0.70
2022-08-01T12:18:15.244Z,0.80
2022-08-01T12:19:23.565Z,0.80
2022-08-01T12:20:25.743Z,0.73
2022-08-01T12:21:27.160Z,0.70
2022-08-01T12:22:28.700Z,0.90
2022-08-01T12:23:30.086Z,0.80
2022-08-01T12:24:31.426Z,1.00
2022-08-01T12:25:33.027Z,0.70
2022-08-01T12:26:41.305Z,0.70
2022-08-01T12:27:43.966Z,0.80
2022-08-01T12:28:45.273Z,0.70
2022-08-01T12:29:47.793Z,0.70
2022-08-01T12:30:50.065Z,0.68
2022-08-01T12:31:52.526Z,0.90
2022-08-01T12:32:54.503Z,0.90
2022-08-01T12:33:55.938Z,0.75
2022-08-01T12:34:58.271Z,0.90
2022-08-01T12:36:01.603Z,0.68
2022-08-01T12:37:03.969Z,0.70
2022-08-01T12:38:07.193Z,0.70
2022-08-01T12:39:08.886Z,1.10
2022-08-01T12:40:14.301Z,0.80
2022-08-01T12:41:16.144Z,0.98
2022-08-01T12:42:17.650Z,0.82
2022-08-01T12:43:27.908Z,0.88
2022-08-01T12:44:31.446Z,1.00
2022-08-01T12:45:56.584Z,0.80
2022-08-01T12:46:59.290Z,0.77
2022-08-01T12:48:01.726Z,0.70
2022-08-01T12:49:03.190Z,0.88
2022-08-01T12:50:08.971Z,0.73
2022-08-01T12:51:12.582Z,0.70
2022-08-01T12:52:14.311Z,0.70
2022-08-01T12:53:16.990Z,0.70
2022-08-01T12:54:18.517Z,0.73
2022-08-01T12:55:25.283Z,0.80
2022-08-01T12:56:35.954Z,0.80
2022-08-01T12:57:38.452Z,0.80
2022-08-01T12:58:39.818Z,0.80
2022-08-01T12:59:41.282Z,0.90
2022-08-01T13:00:44.964Z,1.00
2022-08-01T13:01:46.642Z,0.70
2022-08-01T13:02:48.965Z,0.70
2022-08-01T13:04:04.976Z,0.70
2022-08-01T13:05:06.944Z,0.80
2022-08-01T13:06:16.231Z,0.77
2022-08-01T13:07:18.722Z,0.80
2022-08-01T13:08:20.751Z,1.00
2022-08-01T13:09:22.106Z,0.88
2022-08-01T13:10:26.161Z,0.80
2022-08-01T13:11:27.698Z,0.77
2022-08-01T13:12:29.035Z,1.00
2022-08-01T13:13:38.523Z,0.90
2022-08-01T13:14:41.793Z,0.88
2022-08-01T13:15:44.595Z,0.70
2022-08-01T13:16:56.741Z,0.70
2022-08-01T13:17:59.769Z,0.90
2022-08-01T13:19:01.654Z,1.05
2022-08-01T13:20:03.254Z,0.65
2022-08-01T13:21:11.686Z,0.82
2022-08-01T13:22:13.048Z,0.98
2022-08-01T13:23:15.964Z,0.80
2022-08-01T13:24:26.950Z,0.90
2022-08-01T13:25:29.091Z,0.80
2022-08-01T13:26:42.654Z,0.80
2022-08-01T13:27:52.995Z,0.82
2022-08-01T13:29:06.428Z,0.82
2022-08-01T13:30:18.197Z,1.00
2022-08-01T13:31:19.583Z,0.70
2022-08-01T13:32:28.847Z,0.63
2022-08-01T13:33:45.589Z,1.00
2022-08-01T13:35:01.340Z,0.80
2022-08-01T13:36:04.004Z,0.90
2022-08-01T13:37:05.446Z,0.77
2022-08-01T13:38:09.278Z,0.75
2022-08-01T13:39:29.198Z,1.00
2022-08-01T13:40:30.542Z,0.80
2022-08-01T13:41:34.638Z,0.77
2022-08-01T13:42:36.386Z,0.80
2022-08-01T13:43:58.016Z,0.93
2022-08-01T13:45:00.119Z,0.88
2022-08-01T13:46:03.652Z,0.80
2022-08-01T13:47:15.441Z,0.75
2022-08-01T13:48:18.481Z,0.93
2022-08-01T13:49:20.395Z,0.80
2022-08-01T13:50:24.215Z,0.90
2022-08-01T13:51:25.573Z,0.80
2022-08-01T13:52:26.925Z,0.88
2022-08-01T13:53:28.462Z,0.80
2022-08-01T13:54:29.904Z,0.70
2022-08-01T13:55:35.012Z,0.98
2022-08-01T13:56:36.990Z,1.00
2022-08-01T13:57:38.460Z,0.80
2022-08-01T13:58:39.813Z,1.20
2022-08-01T13:59:41.163Z,1.42
2022-08-01T14:00:42.952Z,1.55
2022-08-01T14:01:44.702Z,1.10
2022-08-01T14:02:46.111Z,0.82
2022-08-01T14:03:48.124Z,0.93
2022-08-01T14:04:49.531Z,0.95
2022-08-01T14:05:50.889Z,0.70
2022-08-01T14:07:04.177Z,0.98
2022-08-01T14:08:08.543Z,1.15
2022-08-01T14:09:17.548Z,1.10
2022-08-01T14:10:22.088Z,0.80
2022-08-01T14:11:23.468Z,0.80
2022-08-01T14:12:24.821Z,0.75
2022-08-01T14:13:29.698Z,0.80
2022-08-01T14:14:33.637Z,0.80
2022-08-01T14:15:38.094Z,0.70
2022-08-01T14:16:40.903Z,0.52
2022-08-01T14:17:47.985Z,0.80
2022-08-01T14:18:49.639Z,1.00
2022-08-01T14:19:50.992Z,0.75
2022-08-01T14:20:53.874Z,0.80